Time;durP1;ratioP1;P1;durP2;ratioP2;P2;SDS_P1;SDS_P2;PMS_P1;PMS_P2;Temp;Humidity;BMP_temperature;BMP_pressure;BME280_temperature;BME280_humidity;BME280_pressure;Samples;Min_cycle;Max_cycle;Signal;HPM_P1;HPM_P2
2021/08/02 00:00:42;;;;;;;23.34;14.82;;;;;;;32.02;44.83;98538.72;390581;103;1984819;-74
2021/08/02 00:01:59;;;;;;;17.61;14.41;;;;;;;31.98;44.98;98538.67;394599;101;1984785;-74
2021/08/02 00:03:20;;;;;;;25.17;15.13;;;;;;;31.89;45.06;98547.30;365516;107;1960857;-74
2021/08/02 00:04:29;;;;;;;23.87;16.01;;;;;;;31.87;45.26;98554.44;366686;109;1960762;-75
2021/08/02 00:05:45;;;;;;;19.41;15.41;;;;;;;31.94;45.45;98557.36;396946;102;1984856;-74
2021/08/02 00:06:54;;;;;;;17.89;14.97;;;;;;;31.83;45.41;98564.73;375115;105;1960890;-74
2021/08/02 00:08:03;;;;;;;18.64;15.17;;;;;;;31.87;45.28;98552.45;373662;103;1961819;-74
2021/08/02 00:09:26;;;;;;;18.48;15.21;;;;;;;31.99;45.28;98557.03;349496;103;2829883;-74
2021/08/02 00:10:34;;;;;;;24.94;15.92;;;;;;;31.86;45.34;98550.84;368076;105;2908736;-75
2021/08/02 00:11:54;;;;;;;23.21;15.31;;;;;;;31.87;45.66;98548.86;396071;101;1984730;-74
2021/08/02 00:13:02;;;;;;;22.61;15.61;;;;;;;31.74;45.65;98537.09;373678;105;1960759;-74
2021/08/02 00:14:17;;;;;;;21.01;15.39;;;;;;;31.60;46.37;98540.47;377585;104;1986012;-75
2021/08/02 00:15:22;;;;;;;22.49;16.35;;;;;;;31.55;46.07;98532.41;376532;106;1960854;-75
2021/08/02 00:16:47;;;;;;;20.04;15.79;;;;;;;31.53;46.23;98529.97;376023;106;1960651;-74
2021/08/02 00:17:53;;;;;;;18.92;14.40;;;;;;;31.51;46.26;98531.53;373171;106;1960935;-75
2021/08/02 00:19:08;;;;;;;23.40;15.82;;;;;;;31.55;46.58;98537.98;352201;106;2610883;-74
2021/08/02 00:20:28;;;;;;;24.14;15.89;;;;;;;31.45;46.73;98547.78;344029;106;2802834;-75
2021/08/02 00:21:32;;;;;;;;;;;;;;;31.31;46.78;98537.16;369127;108;1960858;-73
2021/08/02 00:22:38;;;;;;;21.58;17.01;;;;;;;31.30;46.91;98549.47;353730;111;1960959;-75
2021/08/02 00:23:52;;;;;;;21.99;17.35;;;;;;;31.43;46.78;98547.34;395747;103;1971947;-75
2021/08/02 00:24:58;;;;;;;21.35;16.72;;;;;;;31.40;46.69;98545.30;377831;107;1962035;-74
2021/08/02 00:26:11;;;;;;;23.33;16.88;;;;;;;31.44;46.99;98548.17;398219;104;1985988;-74
2021/08/02 00:27:18;;;;;;;20.11;16.37;;;;;;;31.22;47.18;98550.53;379062;105;1962020;-75
2021/08/02 00:28:42;;;;;;;23.07;16.70;;;;;;;31.15;47.28;98542.05;372702;105;1961997;-73
2021/08/02 00:29:49;;;;;;;20.48;16.52;;;;;;;31.08;47.45;98542.72;373271;105;1962025;-73
2021/08/02 00:31:05;;;;;;;22.13;17.02;;;;;;;31.21;47.39;98529.41;394469;104;1985841;-74
2021/08/02 00:32:13;;;;;;;25.43;16.77;;;;;;;31.07;47.57;98529.95;321794;105;2256949;-74
2021/08/02 00:33:46;;;;;;;20.10;16.53;;;;;;;31.19;47.48;98515.01;390736;104;1985947;-73
2021/08/02 00:34:51;;;;;;;24.79;16.24;;;;;;;31.10;47.55;98522.83;372084;107;1962031;-74
2021/08/02 00:36:37;;;;;;;23.38;16.99;;;;;;;31.02;47.74;98507.15;372517;107;1961955;-75
2021/08/02 00:38:02;;;;;;;25.21;16.63;;;;;;;31.16;47.71;98503.80;378237;104;1964010;-75
2021/08/02 00:39:34;;;;;;;22.08;16.24;;;;;;;30.99;47.70;98508.69;302936;107;2469053;-75
2021/08/02 00:41:09;;;;;;;23.17;17.37;;;;;;;31.06;47.96;98510.79;402063;101;1985873;-73
2021/08/02 00:42:37;;;;;;;23.46;16.28;;;;;;;30.96;47.95;98505.82;345549;103;2716978;-74
2021/08/02 00:44:09;;;;;;;21.41;16.71;;;;;;;31.03;48.06;98490.02;387309;106;1985970;-75
2021/08/02 00:45:24;;;;;;;20.63;16.36;;;;;;;30.88;48.02;98488.98;368392;109;1962052;-75
2021/08/02 00:46:35;;;;;;;22.84;17.27;;;;;;;30.85;48.06;98483.31;333835;109;2892911;-74
2021/08/02 00:48:03;;;;;;;20.43;16.48;;;;;;;30.99;48.17;98478.02;380436;104;1985942;-73
2021/08/02 00:49:16;;;;;;;20.53;16.06;;;;;;;30.98;48.17;98484.75;398185;104;1986054;-73
2021/08/02 00:50:44;;;;;;;21.69;16.21;;;;;;;30.78;48.34;98492.34;378790;105;1962072;-72
2021/08/02 00:51:53;;;;;;;23.17;16.60;;;;;;;30.80;48.30;98478.02;381721;105;1962012;-73
2021/08/02 00:53:12;;;;;;;22.79;17.01;;;;;;;30.83;48.61;98478.13;397595;104;1985028;-74
2021/08/02 00:54:19;;;;;;;;;;;;;;;30.74;48.55;98477.52;379436;107;1961898;-75
2021/08/02 00:55:28;;;;;;;23.82;17.08;;;;;;;30.75;48.58;98490.30;301224;106;2426998;-74
2021/08/02 00:56:36;;;;;;;21.57;17.16;;;;;;;30.72;48.59;98473.48;302686;110;2354014;-74
2021/08/02 00:57:52;;;;;;;21.15;16.92;;;;;;;30.84;48.72;98468.58;397097;103;1962069;-76
2021/08/02 00:59:04;;;;;;;19.94;15.88;;;;;;;30.74;48.48;98471.94;373351;105;1968925;-74
2021/08/02 01:00:19;;;;;;;20.86;15.58;;;;;;;30.89;48.51;98464.69;355072;106;2881059;-75
2021/08/02 01:01:27;;;;;;;21.08;17.49;;;;;;;30.79;48.42;98468.84;371376;108;1961100;-75
2021/08/02 01:02:42;;;;;;;20.91;17.70;;;;;;;30.79;48.41;98470.83;343141;108;1961814;-74
2021/08/02 01:03:56;;;;;;;21.04;16.76;;;;;;;30.93;48.49;98465.53;397342;104;1986094;-76
2021/08/02 01:05:03;;;;;;;20.79;17.49;;;;;;;30.85;48.33;98469.37;382174;105;1961037;-74
2021/08/02 01:06:17;;;;;;;23.33;16.87;;;;;;;30.93;48.59;98461.95;394800;103;1986884;-74
2021/08/02 01:07:22;;;;;;;24.05;16.21;;;;;;;30.77;48.62;98464.81;373360;107;1961997;-73
2021/08/02 01:08:48;;;;;;;20.18;17.46;;;;;;;30.81;48.62;98460.16;369970;109;1962007;-74
2021/08/02 01:10:01;;;;;;;23.73;17.13;;;;;;;30.97;48.76;98457.25;366614;109;1987861;-75
2021/08/02 01:11:12;;;;;;;23.43;18.21;;;;;;;30.93;48.44;98451.59;358984;112;1961968;-73
2021/08/02 01:12:47;;;;;;;21.44;17.36;;;;;;;31.06;48.50;98449.43;411715;99;1986893;-74
2021/08/02 01:14:04;;;;;;;21.66;17.13;;;;;;;31.06;48.55;98452.22;399863;104;1986005;-75
2021/08/02 01:15:28;;;;;;;21.42;16.21;;;;;;;30.99;48.35;98449.30;323017;105;2261075;-74
2021/08/02 01:16:44;;;;;;;20.99;16.28;;;;;;;31.16;48.31;98454.39;363087;104;2606982;-73
2021/08/02 01:17:52;;;;;;;19.88;15.61;;;;;;;31.15;48.09;98451.95;377535;105;1960875;-73
2021/08/02 01:19:17;;;;;;;27.98;16.83;;;;;;;31.20;47.77;98443.28;375007;107;1961933;-75
2021/08/02 01:20:32;;;;;;;18.83;16.12;;;;;;;31.32;47.83;98427.14;372317;108;1985919;-74
2021/08/02 01:21:41;;;;;;;21.20;16.83;;;;;;;31.28;47.69;98426.30;359265;112;1961883;-74
2021/08/02 01:22:56;;;;;;;20.12;17.18;;;;;;;31.55;47.28;98429.13;378851;109;1995029;-74
2021/08/02 01:24:02;;;;;;;19.86;15.80;;;;;;;31.63;46.77;98427.25;337508;111;1962040;-73
2021/08/02 01:25:43;;;;;;;18.67;15.62;;;;;;;31.52;46.95;98424.30;349191;112;1961981;-72
2021/08/02 01:26:51;;;;;;;;;;;;;;;31.55;46.81;98423.55;361092;111;1960962;-74
2021/08/02 01:28:18;;;;;;;22.29;15.47;;;;;;;31.65;46.82;98436.02;389548;103;1972946;-74
2021/08/02 01:30:02;;;;;;;23.08;16.74;;;;;;;31.56;46.79;98432.72;368082;108;1960848;-74
2021/08/02 01:31:14;;;;;;;20.01;15.59;;;;;;;31.68;46.85;98446.47;393525;101;1986971;-73
2021/08/02 01:32:22;;;;;;;22.35;15.70;;;;;;;31.57;46.67;98454.69;380931;105;1961980;-73
2021/08/02 01:33:45;;;;;;;20.39;16.02;;;;;;;31.64;46.48;98449.19;366139;107;1962191;-74
2021/08/02 01:34:57;;;;;;;21.48;15.89;;;;;;;31.72;46.58;98442.52;407566;101;1985977;-75
2021/08/02 01:36:10;;;;;;;21.27;15.99;;;;;;;31.72;46.48;98431.35;393905;104;1986856;-74
2021/08/02 01:37:36;;;;;;;19.53;15.49;;;;;;;31.67;46.44;98430.87;377283;106;1962999;-75
2021/08/02 01:38:49;;;;;;;17.64;14.49;;;;;;;31.83;46.07;98420.33;386175;106;1986012;-75
2021/08/02 01:39:57;;;;;;;23.02;14.39;;;;;;;31.73;45.97;98421.02;322228;110;2602990;-74
2021/08/02 01:41:22;;;;;;;17.26;14.96;;;;;;;31.75;45.73;98427.80;363679;109;1963039;-72
2021/08/02 01:42:30;;;;;;;19.59;14.46;;;;;;;31.87;45.70;98420.39;366465;109;1961880;-74
2021/08/02 01:43:42;;;;;;;18.87;15.72;;;;;;;32.07;45.36;98405.10;399865;101;2072027;-73
2021/08/02 01:44:54;;;;;;;23.36;15.43;;;;;;;32.16;45.18;98405.63;327212;106;2361941;-74
2021/08/02 01:46:33;;;;;;;21.79;15.66;;;;;;;31.88;45.53;98400.45;365760;110;1962061;-74
2021/08/02 01:47:49;;;;;;;20.26;15.14;;;;;;;31.89;45.47;98401.28;361629;111;1962989;-74
2021/08/02 01:49:18;;;;;;;21.09;16.24;;;;;;;32.01;45.38;98400.25;390235;104;2072008;-74
2021/08/02 01:50:37;;;;;;;18.06;13.56;;;;;;;31.88;45.39;98396.86;376887;105;1962024;-74
2021/08/02 01:51:52;;;;;;;17.33;14.13;;;;;;;32.04;45.31;98393.89;384972;106;1986024;-73
2021/08/02 01:53:15;;;;;;;17.59;13.50;;;;;;;31.95;45.27;98396.99;362985;109;1961100;-74
2021/08/02 01:54:50;;;;;;;19.55;14.49;;;;;;;32.06;45.18;98397.12;357210;104;2620994;-74
2021/08/02 01:56:08;;;;;;;17.92;13.92;;;;;;;31.96;45.15;98404.97;375954;106;1961988;-72
2021/08/02 01:57:43;;;;;;;18.49;13.68;;;;;;;31.91;45.12;98396.89;374779;107;1961923;-74
2021/08/02 01:59:02;;;;;;;20.04;15.26;;;;;;;31.93;45.35;98394.56;361532;104;2095000;-73
2021/08/02 02:00:14;;;;;;;18.26;14.43;;;;;;;31.75;45.47;98385.92;372713;107;1964029;-72
2021/08/02 02:01:25;;;;;;;16.86;14.38;;;;;;;31.71;45.56;98390.66;375410;107;1961966;-74
2021/08/02 02:02:33;;;;;;;21.01;14.71;;;;;;;31.66;45.75;98404.95;367963;107;2932012;-74
2021/08/02 02:03:46;;;;;;;18.54;14.75;;;;;;;31.75;45.89;98399.87;397390;104;1985886;-74
2021/08/02 02:04:56;;;;;;;20.76;14.88;;;;;;;31.67;45.84;98398.17;325973;105;2203732;-73
2021/08/02 02:06:12;;;;;;;20.04;15.43;;;;;;;31.74;45.94;98384.32;387439;106;1984698;-75
2021/08/02 02:07:27;;;;;;;19.84;14.26;;;;;;;31.73;46.01;98381.92;401147;101;1985765;-74
2021/08/02 02:08:44;;;;;;;19.78;14.31;;;;;;;31.65;46.02;98380.19;371184;108;1960763;-73
2021/08/02 02:09:58;;;;;;;19.51;15.28;;;;;;;31.71;46.13;98373.12;394233;104;1984784;-73
2021/08/02 02:11:06;;;;;;;20.67;16.11;;;;;;;31.58;46.17;98380.11;339021;107;2099769;-74
2021/08/02 02:12:19;;;;;;;19.20;15.56;;;;;;;31.66;46.30;98382.62;399125;102;1963724;-73
2021/08/02 02:13:37;;;;;;;19.40;14.97;;;;;;;31.53;46.35;98384.83;359979;107;2894009;-73
2021/08/02 02:14:52;;;;;;;19.26;15.49;;;;;;;31.60;46.34;98386.10;395122;104;1985954;-74
2021/08/02 02:16:00;;;;;;;21.51;15.27;;;;;;;31.50;46.40;98387.58;373037;105;1963944;-74
2021/08/02 02:17:26;;;;;;;20.71;15.67;;;;;;;31.44;46.44;98395.48;375448;107;1964027;-73
2021/08/02 02:18:35;;;;;;;23.36;15.92;;;;;;;31.41;46.42;98392.62;366891;109;1962058;-74
2021/08/02 02:19:51;;;;;;;19.47;15.45;;;;;;;31.48;46.58;98393.53;392629;104;1986056;-74
2021/08/02 02:20:59;;;;;;;21.75;16.26;;;;;;;31.33;46.67;98394.46;374269;106;1960969;-73
2021/08/02 02:22:05;;;;;;;20.88;14.89;;;;;;;31.35;46.82;98408.05;334301;105;2149040;-74
2021/08/02 02:23:18;;;;;;;17.87;15.38;;;;;;;31.50;46.52;98401.53;384340;106;1964973;-74
2021/08/02 02:24:25;;;;;;;19.96;14.36;;;;;;;31.31;46.59;98410.80;372148;108;1962049;-74
2021/08/02 02:25:40;;;;;;;19.21;14.57;;;;;;;31.43;46.67;98409.80;391871;104;1986001;-75
2021/08/02 02:26:50;;;;;;;19.85;14.71;;;;;;;31.28;46.70;98408.76;372478;105;1960932;-74
2021/08/02 02:28:03;;;;;;;17.25;14.28;;;;;;;31.41;46.71;98406.56;386218;104;1985857;-74
2021/08/02 02:29:14;;;;;;;22.31;14.82;;;;;;;31.31;46.72;98406.02;366791;107;1962072;-74
2021/08/02 02:30:28;;;;;;;19.77;15.45;;;;;;;31.47;46.59;98416.25;359067;104;2626006;-74
2021/08/02 02:31:35;;;;;;;26.15;15.42;;;;;;;31.38;46.53;98416.50;375368;106;1961962;-73
2021/08/02 02:32:43;;;;;;;21.13;14.57;;;;;;;31.44;46.45;98414.22;367864;107;1960828;-75
2021/08/02 02:33:53;;;;;;;21.91;14.82;;;;;;;31.39;46.59;98417.33;367924;103;1960685;-74
2021/08/02 02:35:06;;;;;;;18.66;14.34;;;;;;;31.53;46.44;98420.31;376825;105;1984697;-73
2021/08/02 02:36:15;;;;;;;20.24;14.24;;;;;;;31.42;46.41;98420.16;369125;106;1960789;-73
2021/08/02 02:37:27;;;;;;;18.92;14.97;;;;;;;31.53;46.50;98423.91;396872;103;1984852;-73
2021/08/02 02:38:35;;;;;;;19.88;15.04;;;;;;;31.43;46.32;98423.75;367826;107;1960726;-73
2021/08/02 02:39:48;;;;;;;18.29;14.48;;;;;;;31.52;46.33;98427.09;394822;104;1984716;-74
2021/08/02 02:40:55;;;;;;;19.55;14.88;;;;;;;31.42;46.33;98425.74;377579;105;1960858;-73
2021/08/02 02:42:22;;;;;;;21.66;14.85;;;;;;;31.44;46.27;98428.97;377418;103;1960700;-74
2021/08/02 02:43:35;;;;;;;19.21;15.03;;;;;;;31.52;46.45;98422.31;395711;104;1984772;-73
2021/08/02 02:44:40;;;;;;;19.68;15.06;;;;;;;31.43;46.34;98420.95;375262;105;1960805;-73
2021/08/02 02:45:47;;;;;;;18.65;14.71;;;;;;;31.39;46.41;98429.28;370908;105;1960629;-73
2021/08/02 02:47:00;;;;;;;20.24;15.93;;;;;;;31.42;46.56;98428.53;343116;103;2252764;-73
2021/08/02 02:48:07;;;;;;;20.08;14.88;;;;;;;31.41;46.35;98437.27;372932;107;1960812;-74
2021/08/02 02:49:22;;;;;;;21.84;15.30;;;;;;;31.43;46.56;98429.33;364440;101;2035697;-73
2021/08/02 02:50:28;;;;;;;18.96;15.22;;;;;;;31.29;46.68;98427.09;368535;105;1960886;-74
2021/08/02 02:51:52;;;;;;;20.41;15.78;;;;;;;31.29;46.71;98446.63;371889;107;1960849;-73
2021/08/02 02:53:05;;;;;;;19.01;15.16;;;;;;;31.33;46.97;98433.52;389877;103;1960831;-73
2021/08/02 02:54:11;;;;;;;21.91;16.58;;;;;;;31.23;46.85;98437.77;363137;104;2947905;-74
2021/08/02 02:55:26;;;;;;;21.70;15.82;;;;;;;31.34;47.00;98437.95;387045;104;1960947;-73
2021/08/02 02:56:36;;;;;;;23.97;15.67;;;;;;;31.18;47.08;98438.09;369469;108;1967777;-72
2021/08/02 02:58:01;;;;;;;25.97;15.64;;;;;;;31.24;46.97;98441.36;360158;112;1960724;-73
2021/08/02 02:59:14;;;;;;;18.17;15.08;;;;;;;31.27;47.11;98444.20;325136;106;2474806;-74
2021/08/02 03:00:21;;;;;;;22.33;15.30;;;;;;;31.15;47.21;98444.42;366445;110;1962961;-74
2021/08/02 03:01:46;;;;;;;20.23;15.76;;;;;;;31.30;47.11;98437.87;382025;106;2071952;-73
2021/08/02 03:02:57;;;;;;;21.01;14.74;;;;;;;31.19;47.15;98442.48;363995;110;1961882;-74
2021/08/02 03:04:24;;;;;;;18.26;14.51;;;;;;;31.31;46.99;98438.70;357395;111;1963047;-74
2021/08/02 03:05:38;;;;;;;20.52;14.44;;;;;;;31.36;47.10;98438.37;351893;104;2747954;-74
2021/08/02 03:06:45;;;;;;;18.38;13.67;;;;;;;31.25;47.17;98452.16;374425;107;1961916;-74
2021/08/02 03:07:59;;;;;;;18.56;14.43;;;;;;;31.45;46.96;98447.31;352084;104;2160085;-73
2021/08/02 03:09:07;;;;;;;17.81;14.92;;;;;;;31.39;46.76;98448.82;371559;107;1962089;-74
2021/08/02 03:10:31;;;;;;;19.82;14.36;;;;;;;31.48;46.58;98452.14;369606;107;1962035;-74
2021/08/02 03:11:38;;;;;;;23.58;15.23;;;;;;;31.44;46.56;98454.08;367646;107;1962075;-73
2021/08/02 03:12:52;;;;;;;19.63;14.50;;;;;;;31.63;46.42;98460.75;390411;104;1995023;-74
2021/08/02 03:13:58;;;;;;;18.81;14.76;;;;;;;31.53;46.40;98464.98;369807;107;1961948;-73
2021/08/02 03:15:11;;;;;;;17.32;14.04;;;;;;;31.66;46.36;98463.58;333024;103;2384961;-74
2021/08/02 03:16:24;;;;;;;19.43;14.62;;;;;;;31.46;46.38;98465.66;375460;107;1962023;-73
2021/08/02 03:17:29;;;;;;;18.28;13.93;;;;;;;31.48;46.24;98460.51;375764;107;1963997;-74
2021/08/02 03:18:42;;;;;;;20.77;15.62;;;;;;;31.64;46.22;98459.55;345228;102;2303047;-73
2021/08/02 03:19:47;;;;;;;18.52;14.42;;;;;;;31.61;46.12;98461.11;356953;103;1973872;-75
2021/08/02 03:21:05;;;;;;;20.08;14.17;;;;;;;31.74;45.90;98465.29;392471;104;2020050;-75
2021/08/02 03:22:24;;;;;;;17.82;14.39;;;;;;;31.67;45.78;98461.59;376740;107;1963853;-75
2021/08/02 03:23:40;;;;;;;17.02;12.92;;;;;;;31.86;45.65;98458.70;396841;104;1985928;-75
2021/08/02 03:24:47;;;;;;;18.99;13.17;;;;;;;32.75;43.53;98452.62;379688;105;1963085;-75
2021/08/02 03:26:11;;;;;;;19.34;13.16;;;;;;;32.26;44.13;98454.45;378944;105;1963700;-74
2021/08/02 03:27:29;;;;;;;18.05;13.24;;;;;;;32.17;44.74;98470.69;388526;106;1985840;-74
2021/08/02 03:28:50;;;;;;;15.21;12.64;;;;;;;32.23;44.59;98460.77;375537;104;1985943;-75
2021/08/02 03:30:03;;;;;;;19.24;13.52;;;;;;;32.15;44.46;98470.25;331853;107;2787952;-74
2021/08/02 03:31:11;;;;;;;23.89;12.24;;;;;;;32.18;44.42;98475.91;375590;107;1962029;-74
2021/08/02 03:32:30;;;;;;;18.46;12.97;;;;;;;32.36;44.21;98458.55;342722;104;2264062;-74
2021/08/02 03:33:40;;;;;;;20.71;12.39;;;;;;;32.31;44.08;98454.12;371624;107;1962024;-73
2021/08/02 03:34:57;;;;;;;18.36;12.91;;;;;;;32.44;43.96;98453.84;326447;109;2261993;-73
2021/08/02 03:36:12;;;;;;;18.93;12.79;;;;;;;32.35;43.88;98451.35;355126;112;1961987;-74
2021/08/02 03:37:37;;;;;;;20.73;12.52;;;;;;;32.37;43.88;98444.20;355442;113;1961916;-75
2021/08/02 03:38:47;;;;;;;15.66;11.17;;;;;;;32.45;43.51;98436.70;353469;114;1961998;-73
2021/08/02 03:40:03;;;;;;;16.13;11.74;;;;;;;32.45;43.58;98427.52;344036;104;2275059;-74
2021/08/02 03:41:10;;;;;;;18.14;11.99;;;;;;;32.43;43.50;98430.69;376620;107;1961961;-74
2021/08/02 03:42:24;;;;;;;17.94;11.01;;;;;;;32.55;43.28;98421.24;386242;106;1986079;-75
2021/08/02 03:43:40;;;;;;;18.66;11.89;;;;;;;32.58;43.25;98417.70;351062;104;2199029;-74
2021/08/02 03:44:48;;;;;;;21.64;12.21;;;;;;;32.45;43.38;98414.34;375301;105;1962983;-74
2021/08/02 03:46:01;;;;;;;17.75;11.62;;;;;;;32.63;43.32;98418.16;378835;108;1985935;-74
2021/08/02 03:47:07;;;;;;;22.53;12.15;;;;;;;32.57;43.05;98407.69;359052;112;1962011;-75
2021/08/02 03:48:14;;;;;;;15.08;11.35;;;;;;;32.62;42.94;98412.94;311525;112;2866802;-76
2021/08/02 03:49:27;;;;;;;18.95;12.31;;;;;;;32.76;42.81;98415.89;394356;104;1988060;-74
2021/08/02 03:50:33;;;;;;;16.57;12.07;;;;;;;32.70;42.77;98423.00;374332;107;1962024;-75
2021/08/02 03:51:48;;;;;;;18.94;12.77;;;;;;;32.84;42.70;98413.94;334988;104;2525017;-76
2021/08/02 03:52:53;;;;;;;17.05;12.07;;;;;;;32.76;42.64;98415.06;375112;107;1970160;-74
2021/08/02 03:54:17;;;;;;;21.61;12.39;;;;;;;32.74;42.69;98409.08;362852;109;1961900;-73
2021/08/02 03:55:31;;;;;;;17.12;13.41;;;;;;;32.89;42.57;98407.20;389479;106;1986947;-74
2021/08/02 03:56:44;;;;;;;16.40;11.89;;;;;;;32.94;42.56;98406.84;392296;104;1986078;-75
2021/08/02 03:58:08;;;;;;;14.39;10.53;;;;;;;32.82;42.36;98400.36;312876;109;2303736;-73
2021/08/02 03:59:24;;;;;;;16.38;10.68;;;;;;;32.83;42.53;98403.95;393155;104;1962051;-75
2021/08/02 04:00:29;;;;;;;19.12;12.37;;;;;;;32.80;42.39;98407.53;361053;106;1968950;-74
2021/08/02 04:01:43;;;;;;;17.44;11.54;;;;;;;32.91;42.17;98402.03;388497;106;1985904;-72
2021/08/02 04:02:50;;;;;;;16.88;11.33;;;;;;;32.76;42.31;98401.08;365577;108;1962056;-73
2021/08/02 04:03:56;;;;;;;15.03;11.26;;;;;;;32.70;42.43;98403.43;356985;112;1963041;-73
2021/08/02 04:05:08;;;;;;;16.91;11.92;;;;;;;33.04;42.24;98400.57;395290;104;1985971;-75
2021/08/02 04:06:15;;;;;;;16.87;12.18;;;;;;;32.96;42.04;98402.47;373783;107;1962081;-74
2021/08/02 04:07:28;;;;;;;16.14;10.69;;;;;;;33.12;42.04;98401.44;397649;104;1962049;-73
2021/08/02 04:08:33;;;;;;;17.22;11.04;;;;;;;32.97;42.04;98398.50;375745;107;1970930;-76
2021/08/02 04:09:45;;;;;;;16.01;11.03;;;;;;;33.05;42.07;98399.38;401783;101;1987094;-76
2021/08/02 04:10:51;;;;;;;15.51;11.14;;;;;;;32.97;41.97;98401.30;385368;104;1962032;-74
2021/08/02 04:12:14;;;;;;;16.17;11.64;;;;;;;32.83;42.09;98401.95;363659;105;1960951;-74
2021/08/02 04:13:27;;;;;;;16.23;11.20;;;;;;;33.01;42.03;98398.55;404357;101;1961999;-75
2021/08/02 04:14:32;;;;;;;15.65;11.24;;;;;;;32.89;42.07;98398.80;385647;103;1970031;-76
2021/08/02 04:15:47;;;;;;;19.45;12.82;;;;;;;32.93;42.20;98403.25;341691;106;2609973;-75
2021/08/02 04:16:53;;;;;;;20.77;12.27;;;;;;;32.77;42.30;98397.91;360944;111;1961982;-74
2021/08/02 04:18:05;;;;;;;16.76;12.28;;;;;;;32.85;42.32;98395.98;381641;104;2997915;-75
2021/08/02 04:19:19;;;;;;;18.95;12.34;;;;;;;32.80;42.46;98387.95;386961;106;1986058;-76
2021/08/02 04:20:25;;;;;;;17.55;12.42;;;;;;;32.78;42.39;98393.12;367352;108;1961022;-75
2021/08/02 04:21:31;;;;;;;17.76;12.16;;;;;;;32.61;42.71;98388.98;363485;110;1962014;-74
2021/08/02 04:22:36;;;;;;;16.23;11.63;;;;;;;32.63;42.75;98386.61;364286;110;1961049;-76
2021/08/02 04:23:44;;;;;;;16.19;11.97;;;;;;;32.66;42.79;98391.42;363471;110;1961972;-75
2021/08/02 04:24:50;;;;;;;17.99;11.43;;;;;;;32.63;42.76;98384.61;304689;110;2329956;-76
2021/08/02 04:26:12;;;;;;;17.60;12.61;;;;;;;32.77;42.79;98391.52;390807;104;2071928;-75
2021/08/02 04:27:18;;;;;;;19.99;12.54;;;;;;;32.61;42.96;98391.77;369281;107;1961971;-77
2021/08/02 04:28:23;;;;;;;20.99;12.27;;;;;;;32.44;43.36;98383.97;366207;110;1962011;-76
2021/08/02 04:29:35;;;;;;;19.68;12.59;;;;;;;32.73;43.08;98382.28;386624;103;2922929;-76
2021/08/02 04:30:42;;;;;;;19.75;12.31;;;;;;;32.30;43.56;98384.63;330919;106;2802032;-75
2021/08/02 04:31:48;;;;;;;18.48;12.32;;;;;;;32.54;43.08;98372.92;344425;107;1961920;-73
2021/08/02 04:32:54;;;;;;;17.33;11.98;;;;;;;32.66;42.78;98363.47;370529;106;1963967;-74
2021/08/02 04:34:07;;;;;;;20.77;12.39;;;;;;;32.84;42.64;98350.44;390619;104;2073084;-76
2021/08/02 04:35:13;;;;;;;21.63;11.69;;;;;;;32.67;42.83;98351.08;368336;107;2959895;-75
2021/08/02 04:36:26;;;;;;;15.27;12.55;;;;;;;32.79;42.94;98353.59;394797;104;2070764;-77
2021/08/02 04:37:31;;;;;;;17.49;12.62;;;;;;;32.66;43.07;98360.67;376347;107;1964462;-76
2021/08/02 04:38:56;;;;;;;17.34;11.26;;;;;;;32.74;42.96;98364.34;336696;108;2637015;-75
2021/08/02 04:40:09;;;;;;;18.22;11.89;;;;;;;32.68;43.24;98374.25;383916;104;1964001;-75
2021/08/02 04:41:14;;;;;;;17.11;11.67;;;;;;;32.54;43.39;98375.72;359253;111;1960882;-80
2021/08/02 04:42:26;;;;;;;17.39;12.43;;;;;;;33.17;42.25;98373.09;382019;103;2833078;-76
2021/08/02 04:43:33;;;;;;;15.59;11.29;;;;;;;32.67;42.89;98389.42;320937;109;2893750;-76
2021/08/02 04:44:56;;;;;;;18.96;12.08;;;;;;;32.45;43.35;98391.18;371473;107;1962082;-75
2021/08/02 04:46:20;;;;;;;18.67;11.72;;;;;;;32.67;43.25;98378.23;396190;104;1984711;-75
2021/08/02 04:47:32;;;;;;;18.58;12.21;;;;;;;32.67;43.28;98376.25;391065;105;1984796;-76
2021/08/02 04:48:56;;;;;;;16.19;11.51;;;;;;;32.52;43.35;98371.70;364878;109;1960833;-75
2021/08/02 04:50:02;;;;;;;15.71;11.41;;;;;;;32.66;43.06;98371.05;366479;110;1960802;-76
2021/08/02 04:51:15;;;;;;;15.92;11.98;;;;;;;32.72;43.12;98363.91;393244;103;1960833;-75
2021/08/02 04:52:20;;;;;;;16.87;12.09;;;;;;;32.61;43.14;98375.00;374006;107;1972974;-75
2021/08/02 04:53:28;;;;;;;14.18;11.62;;;;;;;32.72;42.97;98378.69;367739;109;1960914;-76
2021/08/02 04:54:33;;;;;;;19.39;12.29;;;;;;;32.65;43.07;98367.43;366463;109;1962384;-76
2021/08/02 04:55:48;;;;;;;17.91;12.96;;;;;;;32.78;43.06;98362.36;352259;103;2865994;-75
2021/08/02 04:56:54;;;;;;;16.98;11.76;;;;;;;32.61;43.21;98361.81;355176;109;1962025;-75
2021/08/02 04:58:06;;;;;;;16.86;11.88;;;;;;;32.76;43.30;98353.55;390828;104;1986076;-75
2021/08/02 04:59:11;;;;;;;19.53;12.69;;;;;;;32.56;43.38;98344.59;370850;107;1961957;-76
2021/08/02 05:00:19;;;;;;;17.30;11.92;;;;;;;32.61;43.28;98347.84;362312;109;1962060;-75
2021/08/02 05:01:31;;;;;;;18.54;12.18;;;;;;;32.77;43.19;98347.58;396806;103;1973000;-76
2021/08/02 05:02:37;;;;;;;17.03;12.48;;;;;;;32.58;43.35;98348.61;371385;107;1962084;-76
2021/08/02 05:03:49;;;;;;;18.02;13.40;;;;;;;32.63;43.46;98342.67;380460;105;2071898;-77
2021/08/02 05:04:54;;;;;;;15.18;12.02;;;;;;;32.54;43.49;98352.55;366110;107;1963238;-77
2021/08/02 05:06:18;;;;;;;15.29;11.31;;;;;;;32.47;43.65;98350.52;364464;108;1960837;-77
2021/08/02 05:07:24;;;;;;;16.51;12.40;;;;;;;32.37;43.77;98368.73;363983;109;1963028;-76
2021/08/02 05:08:31;;;;;;;17.67;11.72;;;;;;;32.49;43.72;98361.29;358697;110;1961921;-75
2021/08/02 05:09:44;;;;;;;15.22;12.37;;;;;;;32.52;43.93;98361.31;345271;103;2835897;-75
2021/08/02 05:10:50;;;;;;;17.06;13.01;;;;;;;32.37;44.04;98359.56;372755;107;1969011;-76
2021/08/02 05:11:56;;;;;;;16.46;11.82;;;;;;;32.41;43.99;98365.97;370156;109;1962004;-77
2021/08/02 05:13:17;;;;;;;17.39;12.96;;;;;;;32.58;43.93;98367.38;394687;104;1986080;-77
2021/08/02 05:14:22;;;;;;;17.54;12.15;;;;;;;32.60;43.67;98360.22;374429;106;1961964;-75
2021/08/02 05:15:35;;;;;;;17.99;12.82;;;;;;;32.81;43.36;98353.19;394175;103;1986053;-75
2021/08/02 05:16:43;;;;;;;18.29;13.43;;;;;;;32.71;43.32;98349.13;338509;106;2675925;-75
2021/08/02 05:17:56;;;;;;;17.38;13.07;;;;;;;32.77;43.42;98349.58;393860;103;1986968;-76
2021/08/02 05:19:03;;;;;;;18.26;12.96;;;;;;;32.67;43.41;98336.30;328368;107;2859053;-76
2021/08/02 05:20:26;;;;;;;19.69;13.38;;;;;;;32.65;43.38;98324.69;375104;107;1962093;-75
2021/08/02 05:21:39;;;;;;;18.82;14.25;;;;;;;32.69;43.47;98331.13;329702;104;2405123;-76
2021/08/02 05:22:45;;;;;;;20.10;13.23;;;;;;;32.55;43.51;98329.81;365400;106;1969927;-75
2021/08/02 05:23:58;;;;;;;19.89;13.31;;;;;;;32.64;43.53;98332.28;393158;103;1964973;-75
2021/08/02 05:25:04;;;;;;;19.70;13.37;;;;;;;32.51;43.55;98336.56;375609;106;1962894;-75
2021/08/02 05:26:16;;;;;;;19.41;13.22;;;;;;;32.55;43.69;98332.61;383545;106;1971841;-75
2021/08/02 05:27:22;;;;;;;22.63;13.26;;;;;;;32.46;43.67;98334.88;367171;109;1963954;-76
2021/08/02 05:28:46;;;;;;;16.73;12.99;;;;;;;32.49;43.68;98333.34;359352;112;1962013;-77
2021/08/02 05:29:58;;;;;;;20.47;15.24;;;;;;;32.59;43.85;98321.45;382497;106;2072011;-75
2021/08/02 05:31:04;;;;;;;18.57;13.89;;;;;;;32.40;44.02;98314.86;368043;108;1961754;-76